createdAt,value
2022-08-17T00:00:34.862Z,95.40
2022-08-17T00:03:07.281Z,95.40
2022-08-17T00:05:40.767Z,95.70
2022-08-17T00:08:09.373Z,95.50
2022-08-17T00:10:37.932Z,95.60
2022-08-17T00:13:11.251Z,95.60
2022-08-17T00:15:40.953Z,96.20
2022-08-17T00:18:57.634Z,96.00
2022-08-17T00:20:58.940Z,96.20
2022-08-17T00:23:28.365Z,96.70
2022-08-17T00:25:58.841Z,96.50
2022-08-17T00:28:27.127Z,96.60
2022-08-17T00:31:00.592Z,96.70
2022-08-17T00:33:31.782Z,96.80
2022-08-17T00:36:00.912Z,96.80
2022-08-17T00:38:30.202Z,96.80
2022-08-17T00:41:01.404Z,96.90
2022-08-17T00:43:35.553Z,97.00
2022-08-17T00:46:07.599Z,97.10
2022-08-17T00:48:36.490Z,97.30
2022-08-17T00:51:11.816Z,97.40
2022-08-17T00:53:43.741Z,97.50
2022-08-17T00:56:16.137Z,97.60
2022-08-17T00:58:44.740Z,97.90
2022-08-17T01:01:15.232Z,98.10
2022-08-17T01:03:51.268Z,98.40
2022-08-17T01:06:19.680Z,98.50
2022-08-17T01:08:48.122Z,98.60
2022-08-17T01:11:25.997Z,98.80
2022-08-17T01:13:54.379Z,98.90
2022-08-17T01:16:27.768Z,99.10
2022-08-17T01:18:58.677Z,99.20
2022-08-17T01:21:32.949Z,99.20
2022-08-17T01:24:03.664Z,99.40
2022-08-17T01:26:33.504Z,99.40
2022-08-17T01:29:02.404Z,99.40
2022-08-17T01:31:37.008Z,99.50
2022-08-17T01:34:09.950Z,99.50
2022-08-17T01:36:39.262Z,99.60
2022-08-17T01:39:15.670Z,99.60
2022-08-17T01:41:46.133Z,99.70
2022-08-17T01:44:15.559Z,99.80
2022-08-17T01:46:43.820Z,99.90
2022-08-17T01:49:14.023Z,99.90
2022-08-17T01:51:42.127Z,99.90
2022-08-17T01:54:14.642Z,99.90
2022-08-17T01:56:47.302Z,99.90
2022-08-17T01:59:16.693Z,99.90
2022-08-17T02:01:45.105Z,99.90
2022-08-17T02:04:13.974Z,99.90
2022-08-17T02:06:53.678Z,99.90
2022-08-17T02:09:26.054Z,99.90
2022-08-17T02:11:57.866Z,99.90
2022-08-17T02:14:26.666Z,99.90
2022-08-17T02:16:56.182Z,99.90
2022-08-17T02:19:24.477Z,99.90
2022-08-17T02:21:56.604Z,99.90
2022-08-17T02:24:59.509Z,99.90
2022-08-17T02:27:17.773Z,99.90
2022-08-17T02:29:46.118Z,99.90
2022-08-17T02:32:25.413Z,99.90
2022-08-17T02:34:56.580Z,99.90
2022-08-17T02:37:24.825Z,99.90
2022-08-17T02:39:54.783Z,99.90
2022-08-17T02:42:28.700Z,99.90
2022-08-17T02:44:56.899Z,99.90
2022-08-17T02:47:25.240Z,99.90
2022-08-17T02:49:55.647Z,99.90
2022-08-17T02:52:42.345Z,99.90
2022-08-17T02:55:16.102Z,99.90
2022-08-17T02:57:44.460Z,99.90
2022-08-17T03:00:16.636Z,99.90
2022-08-17T03:02:46.139Z,99.90
2022-08-17T03:05:16.904Z,99.90
2022-08-17T03:07:45.096Z,99.90
2022-08-17T03:10:16.493Z,99.90
2022-08-17T03:12:45.997Z,99.90
2022-08-17T03:15:16.472Z,99.90
2022-08-17T03:17:45.113Z,99.90
2022-08-17T03:20:14.480Z,99.90
2022-08-17T03:22:53.357Z,99.90
2022-08-17T03:25:26.257Z,99.90
2022-08-17T03:27:55.337Z,99.90
2022-08-17T03:30:24.515Z,99.90
2022-08-17T03:32:54.709Z,99.90
2022-08-17T03:35:27.272Z,99.90
2022-08-17T03:38:00.428Z,99.90
2022-08-17T03:40:34.536Z,99.90
2022-08-17T03:43:21.310Z,99.90
2022-08-17T03:46:10.911Z,99.90
2022-08-17T03:49:12.686Z,99.90
2022-08-17T03:51:58.807Z,99.90
2022-08-17T03:54:44.272Z,99.90
2022-08-17T03:57:14.239Z,99.90
2022-08-17T03:59:42.871Z,99.90
2022-08-17T04:02:15.342Z,99.90
2022-08-17T04:04:43.494Z,99.90
2022-08-17T04:07:11.860Z,99.90
2022-08-17T04:09:40.138Z,99.90
2022-08-17T04:12:08.657Z,99.90
2022-08-17T04:14:51.698Z,99.90
2022-08-17T04:17:24.307Z,99.90
2022-08-17T04:19:53.007Z,99.90
2022-08-17T04:22:30.188Z,99.90
2022-08-17T04:24:59.745Z,99.90
2022-08-17T04:27:28.394Z,99.90
2022-08-17T04:30:00.990Z,99.90
2022-08-17T04:33:04.429Z,99.90
2022-08-17T04:35:20.356Z,99.90
2022-08-17T04:37:51.289Z,99.90
2022-08-17T04:40:38.269Z,99.90
2022-08-17T04:43:11.168Z,99.90
2022-08-17T04:45:54.896Z,99.90
2022-08-17T04:48:35.266Z,99.90
2022-08-17T04:51:07.002Z,99.90
2022-08-17T04:53:35.197Z,99.90
2022-08-17T04:56:03.460Z,99.90
2022-08-17T04:58:31.592Z,99.90
2022-08-17T05:01:01.528Z,99.90
2022-08-17T05:03:30.003Z,99.90
2022-08-17T05:05:58.156Z,99.90
2022-08-17T05:08:26.394Z,99.90
2022-08-17T05:10:54.510Z,99.90
2022-08-17T05:13:25.765Z,99.90
2022-08-17T05:15:56.839Z,99.90
2022-08-17T05:18:26.528Z,99.90
2022-08-17T05:20:55.385Z,99.90
2022-08-17T05:23:25.614Z,99.90
2022-08-17T05:25:56.382Z,99.90
2022-08-17T05:28:27.966Z,99.90
2022-08-17T05:30:58.466Z,99.90
2022-08-17T05:33:30.984Z,99.90
2022-08-17T05:36:00.709Z,99.90
2022-08-17T05:38:30.801Z,99.90
2022-08-17T05:41:00.097Z,99.90
2022-08-17T05:43:30.228Z,99.90
2022-08-17T05:46:05.096Z,99.90
2022-08-17T05:48:40.383Z,99.90
2022-08-17T05:51:25.008Z,99.90
2022-08-17T05:54:01.787Z,99.90
2022-08-17T05:56:43.623Z,99.90
2022-08-17T05:59:20.305Z,99.90
2022-08-17T06:01:57.726Z,99.90
2022-08-17T06:04:36.229Z,99.90
2022-08-17T06:07:13.280Z,99.90
2022-08-17T06:09:48.496Z,99.90
2022-08-17T06:12:35.135Z,99.90
2022-08-17T06:15:16.764Z,99.90
2022-08-17T06:17:45.287Z,99.90
2022-08-17T06:20:16.516Z,99.90
2022-08-17T06:22:49.068Z,99.90
2022-08-17T06:25:20.185Z,99.90
2022-08-17T06:27:53.647Z,99.90
2022-08-17T06:30:25.659Z,99.90
2022-08-17T06:32:59.502Z,99.90
2022-08-17T06:35:34.283Z,99.90
2022-08-17T06:38:10.443Z,99.90
2022-08-17T06:41:12.505Z,99.90
2022-08-17T06:43:51.879Z,99.90
2022-08-17T06:46:26.209Z,99.80
2022-08-17T06:49:07.997Z,99.70
2022-08-17T06:51:42.258Z,99.60
2022-08-17T06:54:17.908Z,99.50
2022-08-17T06:56:55.210Z,99.40
2022-08-17T06:59:26.907Z,99.20
2022-08-17T07:02:29.315Z,99.00
2022-08-17T07:05:11.496Z,98.70
2022-08-17T07:08:02.877Z,98.50
2022-08-17T07:10:36.478Z,98.30
2022-08-17T07:13:25.466Z,98.10
2022-08-17T07:15:59.635Z,98.00
2022-08-17T07:18:33.139Z,97.80
2022-08-17T07:21:14.149Z,97.60
2022-08-17T07:24:01.934Z,97.40
2022-08-17T07:26:30.446Z,97.10
2022-08-17T07:29:00.563Z,96.90
2022-08-17T07:31:33.601Z,96.70
2022-08-17T07:34:06.878Z,96.40
2022-08-17T07:36:35.167Z,96.30
2022-08-17T07:39:05.996Z,96.20
2022-08-17T07:41:57.452Z,96.00
2022-08-17T07:44:27.742Z,95.80
2022-08-17T07:47:13.965Z,95.70
2022-08-17T07:49:46.171Z,95.60
2022-08-17T07:52:51.513Z,95.20
2022-08-17T07:55:30.690Z,95.10
2022-08-17T07:57:59.594Z,94.70
2022-08-17T08:00:32.672Z,94.40
2022-08-17T08:03:13.380Z,94.20
2022-08-17T08:05:51.615Z,94.00
2022-08-17T08:08:28.150Z,93.80
2022-08-17T08:11:05.333Z,93.50
2022-08-17T08:13:34.245Z,93.40
2022-08-17T08:16:25.672Z,93.30
2022-08-17T08:18:57.751Z,93.20
2022-08-17T08:21:36.633Z,93.00
2022-08-17T08:24:23.528Z,92.70
2022-08-17T08:27:02.558Z,92.60
2022-08-17T08:29:38.064Z,92.40
2022-08-17T08:32:21.060Z,92.30
2022-08-17T08:35:03.987Z,92.10
2022-08-17T08:37:44.605Z,92.30
2022-08-17T08:40:38.427Z,91.60
2022-08-17T08:43:18.920Z,91.50
2022-08-17T08:45:56.691Z,91.20
2022-08-17T08:48:57.798Z,91.40
2022-08-17T08:51:38.816Z,91.20
2022-08-17T08:54:14.108Z,90.80
2022-08-17T08:57:11.969Z,90.50
2022-08-17T08:59:57.933Z,90.40
2022-08-17T09:02:47.953Z,90.30
2022-08-17T09:05:28.112Z,90.10
2022-08-17T09:08:04.557Z,90.00
2022-08-17T09:10:47.524Z,90.20
2022-08-17T09:13:23.171Z,89.00
2022-08-17T09:15:59.010Z,89.10
2022-08-17T09:18:59.142Z,88.70
2022-08-17T09:21:33.646Z,88.40
2022-08-17T09:24:09.833Z,88.30
2022-08-17T09:26:46.365Z,87.30
2022-08-17T09:29:16.696Z,86.80
2022-08-17T09:31:55.188Z,86.70
2022-08-17T09:34:33.079Z,86.70
2022-08-17T09:37:14.412Z,86.40
2022-08-17T09:39:49.328Z,85.90
2022-08-17T09:42:24.786Z,85.70
2022-08-17T09:44:59.194Z,85.60
2022-08-17T09:47:33.292Z,85.50
2022-08-17T09:50:07.011Z,84.70
2022-08-17T09:52:36.717Z,84.70
2022-08-17T09:55:07.420Z,84.70
2022-08-17T09:57:50.404Z,84.80
2022-08-17T10:00:25.185Z,84.30
2022-08-17T10:03:17.244Z,84.30
2022-08-17T10:05:52.346Z,82.80
2022-08-17T10:08:35.243Z,80.30
2022-08-17T10:11:14.038Z,79.90
2022-08-17T10:13:53.428Z,80.90
2022-08-17T10:16:28.775Z,80.80
2022-08-17T10:19:08.168Z,80.70
2022-08-17T10:22:01.189Z,80.40
2022-08-17T10:25:23.459Z,81.10
2022-08-17T10:28:00.152Z,79.90
2022-08-17T10:30:32.068Z,79.30
2022-08-17T10:33:02.771Z,79.30
2022-08-17T10:35:40.675Z,78.60
2022-08-17T10:38:40.218Z,77.80
2022-08-17T10:41:24.120Z,78.10
2022-08-17T10:44:38.076Z,78.50
2022-08-17T10:47:02.825Z,78.30
2022-08-17T10:49:34.312Z,77.30
2022-08-17T10:52:08.287Z,76.90
2022-08-17T10:54:48.363Z,77.40
2022-08-17T10:57:41.862Z,77.10
2022-08-17T11:00:16.628Z,77.10
2022-08-17T11:02:50.961Z,76.60
2022-08-17T11:05:43.476Z,76.40
2022-08-17T11:08:57.582Z,76.60
2022-08-17T11:12:00.500Z,76.80
2022-08-17T11:14:44.041Z,76.20
2022-08-17T11:17:30.428Z,76.20
2022-08-17T11:20:20.886Z,75.80
2022-08-17T11:23:19.776Z,76.10
2022-08-17T11:25:54.266Z,75.50
2022-08-17T11:28:28.738Z,75.40
2022-08-17T11:31:00.796Z,75.00
2022-08-17T11:33:55.794Z,74.60
2022-08-17T11:36:42.057Z,74.40
2022-08-17T11:39:27.565Z,74.40
2022-08-17T11:42:06.715Z,74.00
2022-08-17T11:44:46.703Z,73.80
2022-08-17T11:47:39.829Z,73.90
2022-08-17T11:50:48.912Z,73.20
2022-08-17T11:54:21.464Z,73.50
2022-08-17T11:56:49.107Z,73.30
2022-08-17T11:59:50.712Z,73.30
2022-08-17T12:02:48.295Z,73.00
2022-08-17T12:05:36.757Z,72.50
2022-08-17T12:08:15.239Z,72.70
2022-08-17T12:11:00.242Z,71.30
2022-08-17T12:13:39.600Z,70.50
2022-08-17T12:16:09.968Z,71.00
2022-08-17T12:18:42.227Z,70.90
2022-08-17T12:21:25.452Z,69.40
2022-08-17T12:23:58.842Z,69.20
2022-08-17T12:26:30.422Z,69.40
2022-08-17T12:29:02.592Z,69.80
2022-08-17T12:31:36.335Z,70.50
2022-08-17T12:34:06.635Z,70.60
2022-08-17T12:36:35.216Z,70.70
2022-08-17T12:39:13.847Z,70.90
2022-08-17T12:41:46.983Z,71.20
2022-08-17T12:44:18.789Z,71.40
2022-08-17T12:46:51.286Z,70.90
2022-08-17T12:49:31.729Z,71.50
2022-08-17T12:52:12.318Z,71.10
2022-08-17T12:54:47.345Z,70.90
2022-08-17T12:57:18.719Z,69.80
2022-08-17T12:59:53.096Z,70.10
2022-08-17T13:02:28.407Z,70.00
2022-08-17T13:05:00.579Z,69.60
2022-08-17T13:07:32.393Z,69.30
2022-08-17T13:10:01.059Z,68.30
2022-08-17T13:12:33.789Z,68.50
2022-08-17T13:15:02.806Z,67.90
2022-08-17T13:17:34.796Z,67.80
2022-08-17T13:20:07.160Z,68.50
2022-08-17T13:22:35.324Z,69.10
2022-08-17T13:25:08.574Z,69.30
2022-08-17T13:27:38.344Z,69.00
2022-08-17T13:30:12.838Z,68.80
2022-08-17T13:32:43.827Z,69.10
2022-08-17T13:35:39.513Z,68.20
2022-08-17T13:38:11.801Z,67.30
2022-08-17T13:40:44.780Z,67.70
2022-08-17T13:43:13.365Z,67.40
2022-08-17T13:45:50.502Z,68.00
2022-08-17T13:48:25.856Z,67.90
2022-08-17T13:51:15.093Z,68.00
2022-08-17T13:53:54.260Z,67.60
2022-08-17T13:56:33.471Z,67.90
2022-08-17T13:59:11.129Z,68.20
2022-08-17T14:01:42.947Z,67.90
2022-08-17T14:04:13.636Z,67.90
2022-08-17T14:06:53.162Z,67.90
2022-08-17T14:09:25.349Z,67.30
2022-08-17T14:11:55.588Z,67.20
2022-08-17T14:14:24.548Z,67.30
2022-08-17T14:16:53.142Z,67.40
2022-08-17T14:19:22.788Z,68.10
2022-08-17T14:21:56.478Z,67.10
2022-08-17T14:24:28.833Z,66.40
2022-08-17T14:26:57.801Z,65.40
2022-08-17T14:29:28.985Z,65.00
2022-08-17T14:31:58.717Z,65.00
2022-08-17T14:34:27.354Z,65.10
2022-08-17T14:36:57.642Z,65.30
2022-08-17T14:39:25.792Z,65.70
2022-08-17T14:41:54.208Z,66.30
2022-08-17T14:44:22.325Z,66.10
2022-08-17T14:46:50.617Z,65.90
2022-08-17T14:49:19.863Z,66.10
2022-08-17T14:51:49.293Z,66.10
2022-08-17T14:54:34.362Z,65.50
2022-08-17T14:57:22.764Z,65.50
2022-08-17T14:59:54.871Z,66.10
2022-08-17T15:02:30.215Z,64.90
2022-08-17T15:05:00.442Z,64.60
2022-08-17T15:07:30.422Z,64.50
2022-08-17T15:10:02.107Z,64.30
2022-08-17T15:12:33.697Z,64.00
2022-08-17T15:15:04.666Z,63.80
2022-08-17T15:17:44.701Z,63.80
2022-08-17T15:20:16.413Z,63.70
2022-08-17T15:22:46.526Z,63.60
2022-08-17T15:25:16.509Z,63.90
2022-08-17T15:27:44.688Z,64.00
2022-08-17T15:30:13.868Z,63.80
2022-08-17T15:32:45.783Z,63.50
2022-08-17T15:35:26.960Z,64.00
2022-08-17T15:37:57.853Z,64.10
2022-08-17T15:40:27.526Z,64.50
2022-08-17T15:42:57.756Z,64.40
2022-08-17T15:45:28.380Z,64.10
2022-08-17T15:47:56.479Z,65.10
2022-08-17T15:50:24.626Z,63.90
2022-08-17T15:52:57.884Z,63.50
2022-08-17T15:55:29.140Z,64.10
2022-08-17T15:57:57.252Z,64.50
2022-08-17T16:00:26.896Z,64.80
2022-08-17T16:03:45.126Z,64.60
2022-08-17T16:05:43.612Z,64.60
2022-08-17T16:08:12.589Z,64.30
2022-08-17T16:10:44.358Z,64.40
2022-08-17T16:13:17.899Z,64.20
2022-08-17T16:15:51.045Z,63.70
2022-08-17T16:18:26.418Z,63.30
2022-08-17T16:20:55.054Z,62.40
2022-08-17T16:23:23.463Z,62.00
2022-08-17T16:25:54.397Z,62.90
2022-08-17T16:28:23.279Z,63.10
2022-08-17T16:31:07.919Z,63.80
2022-08-17T16:33:37.680Z,64.10
2022-08-17T16:36:07.271Z,64.20
2022-08-17T16:38:35.765Z,64.30
2022-08-17T16:41:05.866Z,63.70
2022-08-17T16:43:34.678Z,62.80
2022-08-17T16:46:03.245Z,62.50
2022-08-17T16:48:31.986Z,62.30
2022-08-17T16:51:03.756Z,62.60
2022-08-17T16:53:33.129Z,62.90
2022-08-17T16:56:01.232Z,63.50
2022-08-17T16:58:30.696Z,64.40
2022-08-17T17:00:59.734Z,64.90
2022-08-17T17:03:30.262Z,65.30
2022-08-17T17:06:09.980Z,65.60
2022-08-17T17:08:44.907Z,66.10
2022-08-17T17:11:19.376Z,66.40
2022-08-17T17:13:54.130Z,66.60
2022-08-17T17:16:29.574Z,67.00
2022-08-17T17:19:09.196Z,67.20
2022-08-17T17:21:43.647Z,67.30
2022-08-17T17:24:18.043Z,67.50
2022-08-17T17:27:09.459Z,67.50
2022-08-17T17:29:52.453Z,67.80
2022-08-17T17:32:27.024Z,68.20
2022-08-17T17:35:01.968Z,68.20
2022-08-17T17:37:35.040Z,68.10
2022-08-17T17:40:06.788Z,68.20
2022-08-17T17:42:35.395Z,68.50
2022-08-17T17:45:13.181Z,68.80
2022-08-17T17:47:41.824Z,69.20
2022-08-17T17:50:10.309Z,69.50
2022-08-17T17:52:48.518Z,70.00
2022-08-17T17:55:30.996Z,70.20
2022-08-17T17:58:08.050Z,70.40
2022-08-17T18:00:45.198Z,70.70
2022-08-17T18:03:24.884Z,70.70
2022-08-17T18:06:09.862Z,70.70
2022-08-17T18:08:48.930Z,70.80
2022-08-17T18:11:38.311Z,70.90
2022-08-17T18:14:17.637Z,71.10
2022-08-17T18:16:48.238Z,71.30
2022-08-17T18:19:20.071Z,71.60
2022-08-17T18:21:53.200Z,71.80
2022-08-17T18:24:30.943Z,72.20
2022-08-17T18:27:02.134Z,72.60
2022-08-17T18:29:43.888Z,72.70
2022-08-17T18:32:25.156Z,72.70
2022-08-17T18:34:55.449Z,72.70
2022-08-17T18:37:34.627Z,72.80
2022-08-17T18:40:27.532Z,72.70
2022-08-17T18:43:12.768Z,72.70
2022-08-17T18:45:48.156Z,72.80
2022-08-17T18:48:28.884Z,72.90
2022-08-17T18:50:59.563Z,73.20
2022-08-17T18:53:39.353Z,73.40
2022-08-17T18:56:24.236Z,73.40
2022-08-17T18:58:57.349Z,73.60
2022-08-17T19:01:41.982Z,73.90
2022-08-17T19:04:33.985Z,74.10
2022-08-17T19:07:10.227Z,74.60
2022-08-17T19:09:43.799Z,74.80
2022-08-17T19:12:26.814Z,75.10
2022-08-17T19:14:57.670Z,75.70
2022-08-17T19:17:38.648Z,76.10
2022-08-17T19:20:13.985Z,76.70
2022-08-17T19:22:58.029Z,77.20
2022-08-17T19:25:30.536Z,78.50
2022-08-17T19:28:04.149Z,77.80
2022-08-17T19:30:51.146Z,78.20
2022-08-17T19:33:19.510Z,78.00
2022-08-17T19:35:58.413Z,78.10
2022-08-17T19:38:37.317Z,78.30
2022-08-17T19:41:13.065Z,78.30
2022-08-17T19:44:10.453Z,78.50
2022-08-17T19:46:48.620Z,78.70
2022-08-17T19:49:33.010Z,78.80
2022-08-17T19:52:29.233Z,79.70
2022-08-17T19:55:03.408Z,79.10
2022-08-17T19:57:43.182Z,79.00
2022-08-17T20:00:14.742Z,79.20
2022-08-17T20:02:49.239Z,79.20
2022-08-17T20:05:21.295Z,79.20
2022-08-17T20:07:55.264Z,79.30
2022-08-17T20:10:35.387Z,79.60
2022-08-17T20:13:08.872Z,79.70
2022-08-17T20:15:41.641Z,79.60
2022-08-17T20:18:18.518Z,79.70
2022-08-17T20:20:56.793Z,80.70
2022-08-17T20:23:44.776Z,80.30
2022-08-17T20:26:19.980Z,80.40
2022-08-17T20:29:31.864Z,80.60
2022-08-17T20:32:26.773Z,80.20
2022-08-17T20:35:19.646Z,80.60
2022-08-17T20:37:54.984Z,80.40
2022-08-17T20:40:28.263Z,80.40
2022-08-17T20:42:57.751Z,80.60
2022-08-17T20:46:10.737Z,80.60
2022-08-17T20:48:42.871Z,80.50
2022-08-17T20:51:23.593Z,80.70
2022-08-17T20:54:24.073Z,80.80
2022-08-17T20:56:57.827Z,80.90
2022-08-17T20:59:56.321Z,81.40
2022-08-17T21:02:26.626Z,82.00
2022-08-17T21:05:07.261Z,82.40
2022-08-17T21:07:55.712Z,83.60
2022-08-17T21:10:36.473Z,83.20
2022-08-17T21:13:49.249Z,83.50
2022-08-17T21:16:31.436Z,83.90
2022-08-17T21:19:16.891Z,84.50
2022-08-17T21:21:59.069Z,84.70
2022-08-17T21:24:38.440Z,85.00
2022-08-17T21:27:20.233Z,85.10
2022-08-17T21:30:16.296Z,85.60
2022-08-17T21:33:06.823Z,85.50
2022-08-17T21:35:48.533Z,86.10
2022-08-17T21:38:20.501Z,86.30
2022-08-17T21:40:52.016Z,86.50
2022-08-17T21:43:25.716Z,87.40
2022-08-17T21:46:02.656Z,86.90
2022-08-17T21:48:33.721Z,87.30
2022-08-17T21:51:10.547Z,87.20
2022-08-17T21:53:45.509Z,87.30
2022-08-17T21:56:20.960Z,87.70
2022-08-17T21:58:57.185Z,87.60
2022-08-17T22:01:29.440Z,87.90
2022-08-17T22:04:03.296Z,87.90
2022-08-17T22:06:40.657Z,87.90
2022-08-17T22:09:20.043Z,88.20
2022-08-17T22:11:52.799Z,88.40
2022-08-17T22:14:22.559Z,89.00
2022-08-17T22:17:08.298Z,89.10
2022-08-17T22:19:37.573Z,88.40
2022-08-17T22:22:08.181Z,88.40
2022-08-17T22:24:36.978Z,88.70
2022-08-17T22:27:10.356Z,88.50
2022-08-17T22:29:57.027Z,88.90
2022-08-17T22:32:40.764Z,88.90
2022-08-17T22:35:20.584Z,89.00
2022-08-17T22:37:48.912Z,89.20
2022-08-17T22:40:27.319Z,89.10
2022-08-17T22:42:57.218Z,89.40
2022-08-17T22:45:26.793Z,89.50
2022-08-17T22:47:58.698Z,89.60
2022-08-17T22:50:30.274Z,89.70
2022-08-17T22:53:18.860Z,89.80
2022-08-17T22:56:09.824Z,89.80
2022-08-17T22:59:02.657Z,90.00
2022-08-17T23:01:34.806Z,90.00
2022-08-17T23:04:07.940Z,90.10
2022-08-17T23:06:38.033Z,90.20
2022-08-17T23:09:08.101Z,90.30
2022-08-17T23:11:49.290Z,90.30
2022-08-17T23:14:20.226Z,90.40
2022-08-17T23:16:49.038Z,90.50
2022-08-17T23:19:23.218Z,90.60
2022-08-17T23:21:52.631Z,90.70
2022-08-17T23:24:24.811Z,90.70
2022-08-17T23:26:53.115Z,90.70
2022-08-17T23:29:21.589Z,90.70
2022-08-17T23:31:51.063Z,90.80
2022-08-17T23:34:20.959Z,90.80
2022-08-17T23:36:53.222Z,90.80
2022-08-17T23:39:27.738Z,90.90
2022-08-17T23:41:57.236Z,90.90
2022-08-17T23:44:25.806Z,91.40
2022-08-17T23:46:54.877Z,91.20
2022-08-17T23:49:25.209Z,91.20
2022-08-17T23:51:55.249Z,91.30
2022-08-17T23:54:28.606Z,91.40
2022-08-17T23:56:56.785Z,91.40
2022-08-17T23:59:26.923Z,91.50
